Time;durP1;ratioP1;P1;durP2;ratioP2;P2;SDS_P1;SDS_P2;PMS_P1;PMS_P2;Temp;Humidity;BMP_temperature;BMP_pressure;BME280_temperature;BME280_humidity;BME280_pressure;Samples;Min_cycle;Max_cycle;Signal;HPM_P1;HPM_P2
2023/05/21 00:00:50;;;;;;;16.10;11.93;;;;;;;;;;5050828;28;20563;-63
2023/05/21 00:03:17;;;;;;;13.00;10.00;;;;;;;;;;5042530;28;20460;-62
2023/05/21 00:05:45;;;;;;;14.30;11.10;;;;;;;;;;5040263;28;20511;-61
2023/05/21 00:08:13;;;;;;;13.90;11.37;;;;;;;;;;5047530;28;20451;-60
2023/05/21 00:10:41;;;;;;;13.83;10.97;;;;;;;;;;5043914;28;20468;-61
2023/05/21 00:13:09;;;;;;;18.97;12.17;;;;;;;;;;5035764;28;20472;-63
2023/05/21 00:15:37;;;;;;;16.50;11.90;;;16.60;99.90;;;;;;5040521;28;20472;-62
2023/05/21 00:18:04;;;;;;;17.27;11.90;;;;;;;;;;5052127;28;20476;-59
2023/05/21 00:20:32;;;;;;;11.70;10.33;;;;;;;;;;5049294;28;20467;-59
2023/05/21 00:23:01;;;;;;;13.50;11.50;;;;;;;;;;5044553;28;20444;-60
2023/05/21 00:25:28;;;;;;;16.63;11.67;;;;;;;;;;5044980;28;20480;-61
2023/05/21 00:27:55;;;;;;;17.77;11.97;;;;;;;;;;5038312;28;20425;-62
2023/05/21 00:30:23;;;;;;;16.47;10.90;;;;;;;;;;5040030;28;20547;-62
2023/05/21 00:32:51;;;;;;;14.30;12.03;;;16.70;99.90;;;;;;5040971;28;20432;-60
2023/05/21 00:35:19;;;;;;;15.47;11.37;;;;;;;;;;5040463;28;20468;-60
2023/05/21 00:37:46;;;;;;;14.70;10.80;;;;;;;;;;5039038;28;20484;-62
2023/05/21 00:40:14;;;;;;;12.23;10.20;;;;;;;;;;5040696;28;20897;-61
2023/05/21 00:42:41;;;;;;;14.10;10.43;;;;;;;;;;5039785;28;20468;-63
2023/05/21 00:45:09;;;;;;;15.50;10.60;;;16.80;99.90;;;;;;5039990;28;20495;-62
2023/05/21 00:47:36;;;;;;;16.80;9.80;;;;;;;;;;5040464;28;20532;-61
2023/05/21 00:50:06;;;;;;;16.80;11.97;;;16.70;99.90;;;;;;5041291;28;20607;-58
2023/05/21 00:52:40;;;;;;;19.63;10.17;;;;;;;;;;5041464;28;20472;-59
2023/05/21 00:55:08;;;;;;;11.20;9.90;;;16.80;99.90;;;;;;5047362;28;20437;-60
2023/05/21 00:57:36;;;;;;;11.93;10.13;;;16.60;99.90;;;;;;5042456;28;20536;-61
2023/05/21 01:00:07;;;;;;;14.87;10.90;;;16.60;99.90;;;;;;5041161;28;20464;-61
2023/05/21 01:02:35;;;;;;;16.73;11.13;;;;;;;;;;5047039;28;20525;-60
2023/05/21 01:05:07;;;;;;;13.67;10.27;;;16.50;99.90;;;;;;5047207;28;20449;-60
2023/05/21 01:07:34;;;;;;;15.83;11.00;;;;;;;;;;5050421;28;20468;-61
2023/05/21 01:10:03;;;;;;;13.90;10.47;;;16.60;99.90;;;;;;5045635;28;20456;-61
2023/05/21 01:12:32;;;;;;;13.73;11.80;;;16.30;99.90;;;;;;5045935;28;20476;-59
2023/05/21 01:15:00;;;;;;;16.60;11.73;;;16.60;99.90;;;;;;5053281;28;20433;-59
2023/05/21 01:17:30;;;;;;;17.60;11.80;;;16.70;99.90;;;;;;5047688;28;20953;-62
2023/05/21 01:19:58;;;;;;;11.83;10.07;;;16.50;99.90;;;;;;5050114;28;20462;-56
2023/05/21 01:22:28;;;;;;;12.30;10.33;;;16.50;99.90;;;;;;5050022;28;20464;-60
2023/05/21 01:24:57;;;;;;;13.40;10.53;;;16.50;99.90;;;;;;5034471;28;20456;-60
2023/05/21 01:27:24;;;;;;;14.03;10.57;;;;;;;;;;5039429;28;20496;-61
2023/05/21 01:29:51;;;;;;;13.60;11.03;;;;;;;;;;5037583;28;20468;-62
2023/05/21 01:32:26;;;;;;;15.50;11.03;;;16.20;99.90;;;;;;5038298;28;20988;-61
2023/05/21 01:34:59;;;;;;;14.90;10.17;;;16.40;99.90;;;;;;5039727;28;20444;-62
2023/05/21 01:37:32;;;;;;;14.27;11.30;;;16.50;99.90;;;;;;5039294;28;20956;-57
2023/05/21 01:40:13;;;;;;;17.10;12.20;;;16.30;99.90;;;;;;5037332;28;20432;-60
2023/05/21 01:42:43;;;;;;;15.23;10.33;;;16.20;99.90;;;;;;5039933;28;20538;-61
2023/05/21 01:45:11;;;;;;;15.30;12.53;;;;;;;;;;5053405;28;20456;-62
2023/05/21 01:47:39;;;;;;;15.70;11.90;;;16.20;99.90;;;;;;5052586;28;20499;-61
2023/05/21 01:50:08;;;;;;;14.37;10.13;;;17.50;99.90;;;;;;5041052;28;20429;-60
2023/05/21 01:52:35;;;;;;;14.23;11.70;;;;;;;;;;5041658;28;20864;-62
2023/05/21 01:55:03;;;;;;;11.30;9.77;;;16.30;99.90;;;;;;5039629;28;20531;-60
2023/05/21 01:57:30;;;;;;;13.90;11.43;;;;;;;;;;5043266;28;20578;-62
2023/05/21 01:59:58;;;;;;;16.97;11.30;;;;;;;;;;5045341;28;20615;-60
2023/05/21 02:02:25;;;;;;;12.27;10.77;;;;;;;;;;5044733;28;20455;-60
2023/05/21 02:04:52;;;;;;;16.13;11.10;;;;;;;;;;5043646;28;20506;-61
2023/05/21 02:07:19;;;;;;;20.20;13.63;;;;;;;;;;5041147;28;20471;-61
2023/05/21 02:09:47;;;;;;;18.10;12.73;;;;;;;;;;5037468;28;20922;-59
2023/05/21 02:12:15;;;;;;;18.80;10.87;;;;;;;;;;5034389;28;20504;-58
2023/05/21 02:14:42;;;;;;;16.70;12.03;;;;;;;;;;5033533;28;20519;-61
2023/05/21 02:17:11;;;;;;;17.60;11.43;;;;;;;;;;5035395;28;20641;-61
2023/05/21 02:19:38;;;;;;;14.40;11.57;;;;;;;;;;5036612;28;20510;-62
2023/05/21 02:22:05;;;;;;;15.33;11.60;;;;;;;;;;5036990;28;20479;-63
2023/05/21 02:24:32;;;;;;;13.47;10.10;;;;;;;;;;5039276;28;20500;-61
2023/05/21 02:27:00;;;;;;;18.53;11.70;;;;;;;;;;5038057;28;20548;-63
2023/05/21 02:29:28;;;;;;;15.20;11.83;;;;;;;;;;5036588;28;20957;-59
2023/05/21 02:31:55;;;;;;;17.77;12.67;;;;;;;;;;5037680;28;20471;-62
2023/05/21 02:34:24;;;;;;;18.27;12.80;;;15.90;99.90;;;;;;5044460;28;20531;-60
2023/05/21 02:36:52;;;;;;;14.27;12.40;;;;;;;;;;5042375;28;20452;-61
2023/05/21 02:39:19;;;;;;;22.10;13.57;;;;;;;;;;5041863;28;20562;-61
2023/05/21 02:41:46;;;;;;;18.73;12.10;;;;;;;;;;5040812;28;20462;-57
2023/05/21 02:44:13;;;;;;;18.87;13.37;;;;;;;;;;5046444;28;20464;-62
2023/05/21 02:46:42;;;;;;;16.67;12.53;;;;;;;;;;5041770;28;20454;-61
2023/05/21 02:49:09;;;;;;;18.03;13.37;;;;;;;;;;5042428;28;20973;-61
2023/05/21 02:51:36;;;;;;;21.23;14.20;;;;;;;;;;5041890;28;20444;-61
2023/05/21 02:54:04;;;;;;;22.03;13.50;;;16.10;99.90;;;;;;5044119;28;21044;-60
2023/05/21 02:56:31;;;;;;;17.77;13.73;;;;;;;;;;5045028;28;20479;-54
2023/05/21 02:59:02;;;;;;;22.20;14.90;;;15.80;99.90;;;;;;5050137;28;20495;-62
2023/05/21 03:01:29;;;;;;;14.93;12.40;;;;;;;;;;5046352;28;20466;-60
2023/05/21 03:03:57;;;;;;;18.57;14.13;;;15.90;99.90;;;;;;5054125;28;20452;-58
2023/05/21 03:06:24;;;;;;;17.20;12.50;;;;;;;;;;5048322;28;20566;-62
2023/05/21 03:08:52;;;;;;;17.80;13.83;;;;;;;;;;5054650;28;20478;-59
2023/05/21 03:11:19;;;;;;;21.03;14.37;;;;;;;;;;5055114;28;20529;-58
2023/05/21 03:13:46;;;;;;;19.47;15.57;;;;;;;;;;5056619;28;20519;-62
2023/05/21 03:16:14;;;;;;;20.60;12.93;;;;;;;;;;5045836;28;20544;-61
2023/05/21 03:18:42;;;;;;;19.60;14.47;;;;;;;;;;5045861;28;20495;-61
2023/05/21 03:21:12;;;;;;;20.83;14.50;;;;;;;;;;5040721;28;20452;-62
2023/05/21 03:23:40;;;;;;;24.30;13.70;;;;;;;;;;5046349;28;20448;-62
2023/05/21 03:26:07;;;;;;;21.97;15.23;;;;;;;;;;5044292;28;20546;-61
2023/05/21 03:28:35;;;;;;;19.90;13.20;;;;;;;;;;5047181;28;20516;-61
2023/05/21 03:31:02;;;;;;;19.20;14.63;;;;;;;;;;5042147;28;20559;-61
2023/05/21 03:33:29;;;;;;;26.53;14.20;;;;;;;;;;5039963;28;20494;-63
2023/05/21 03:35:57;;;;;;;23.10;14.57;;;;;;;;;;5039511;28;20474;-61
2023/05/21 03:38:25;;;;;;;18.60;14.27;;;16.10;99.90;;;;;;5049748;28;20571;-60
2023/05/21 03:40:52;;;;;;;20.83;15.40;;;;;;;;;;5041676;28;20484;-60
2023/05/21 03:43:19;;;;;;;20.23;14.00;;;;;;;;;;5041193;28;20503;-61
2023/05/21 03:45:46;;;;;;;15.00;12.90;;;;;;;;;;5046284;28;20476;-57
2023/05/21 03:48:14;;;;;;;21.67;16.57;;;;;;;;;;5052348;28;20437;-62
2023/05/21 03:50:43;;;;;;;18.40;14.03;;;15.90;99.90;;;;;;5052316;28;20508;-60
2023/05/21 03:53:11;;;;;;;25.23;15.50;;;;;;;;;;5039794;28;20508;-63
2023/05/21 03:55:39;;;;;;;17.23;14.50;;;;;;;;;;5039056;28;20745;-62
2023/05/21 03:58:08;;;;;;;19.80;14.60;;;;;;;;;;5039301;28;20468;-61
2023/05/21 04:00:36;;;;;;;19.27;14.53;;;;;;;;;;5041255;28;20475;-61
2023/05/21 04:03:05;;;;;;;22.77;15.20;;;;;;;;;;5045027;28;20494;-61
2023/05/21 04:05:33;;;;;;;19.93;15.00;;;;;;;;;;5055261;28;20424;-58
2023/05/21 04:08:00;;;;;;;19.97;14.63;;;;;;;;;;5050275;28;20427;-60
2023/05/21 04:10:27;;;;;;;20.47;14.70;;;;;;;;;;5049258;28;20444;-60
2023/05/21 04:12:56;;;;;;;23.10;15.90;;;;;;;;;;5041442;28;20450;-59
2023/05/21 04:15:23;;;;;;;23.77;17.07;;;;;;;;;;5044786;28;20487;-60
2023/05/21 04:17:51;;;;;;;20.87;16.90;;;;;;;;;;5048095;28;20482;-61
2023/05/21 04:20:18;;;;;;;20.30;15.40;;;;;;;;;;5049582;28;20441;-59
2023/05/21 04:22:45;;;;;;;19.67;16.50;;;;;;;;;;5040654;28;20499;-62
2023/05/21 04:25:12;;;;;;;19.57;15.53;;;;;;;;;;5039104;28;20488;-61
2023/05/21 04:27:41;;;;;;;26.10;16.40;;;;;;;;;;5040477;28;20448;-63
2023/05/21 04:30:10;;;;;;;26.23;16.37;;;16.50;99.90;;;;;;5041945;28;20444;-61
2023/05/21 04:32:38;;;;;;;24.27;16.10;;;;;;;;;;5050918;28;20452;-58
2023/05/21 04:35:05;;;;;;;18.03;14.80;;;16.10;99.90;;;;;;5048716;28;20882;-60
2023/05/21 04:37:33;;;;;;;20.77;14.97;;;;;;;;;;5040131;28;20495;-62
2023/05/21 04:40:01;;;;;;;22.73;15.13;;;;;;;;;;5039719;28;20498;-62
2023/05/21 04:42:29;;;;;;;22.70;14.67;;;;;;;;;;5039253;28;20482;-60
2023/05/21 04:44:58;;;;;;;19.33;15.20;;;;;;;;;;5038383;28;20448;-60
2023/05/21 04:47:28;;;;;;;20.23;15.37;;;16.50;99.90;;;;;;5041342;28;20480;-61
2023/05/21 04:49:56;;;;;;;24.27;15.63;;;;;;;;;;5041298;28;20448;-62
2023/05/21 04:52:23;;;;;;;19.70;14.50;;;;;;;;;;5038802;28;20510;-59
2023/05/21 04:54:52;;;;;;;23.10;15.23;;;;;;;;;;5042469;28;20452;-60
2023/05/21 04:57:20;;;;;;;15.87;13.47;;;;;;;;;;5054036;28;20467;-62
2023/05/21 04:59:48;;;;;;;27.90;16.00;;;;;;;;;;5046222;28;20910;-60
2023/05/21 05:02:16;;;;;;;24.33;15.30;;;16.90;99.90;;;;;;5045371;28;20463;-62
2023/05/21 05:04:45;;;;;;;19.47;14.83;;;17.00;99.90;;;;;;5041148;28;20452;-61
2023/05/21 05:07:14;;;;;;;25.83;16.10;;;17.20;99.90;;;;;;5043808;28;20536;-62
2023/05/21 05:09:41;;;;;;;16.17;14.40;;;;;;;;;;5054450;28;20428;-61
2023/05/21 05:12:08;;;;;;;20.17;14.80;;;;;;;;;;5049433;28;20480;-57
2023/05/21 05:14:36;;;;;;;18.70;14.97;;;;;;;;;;5044109;28;20460;-60
2023/05/21 05:17:03;;;;;;;19.67;15.43;;;;;;;;;;5041683;28;20464;-63
2023/05/21 05:19:30;;;;;;;21.87;15.40;;;;;;;;;;5048497;28;20480;-61
2023/05/21 05:22:01;;;;;;;24.43;15.33;;;17.60;99.90;;;;;;5047236;28;20460;-60
2023/05/21 05:24:28;;;;;;;22.50;16.80;;;;;;;;;;5042630;28;20432;-58
2023/05/21 05:26:56;;;;;;;19.67;15.83;;;;;;;;;;5045550;28;20535;-62
2023/05/21 05:29:23;;;;;;;23.90;16.43;;;;;;;;;;5038952;28;20535;-61
2023/05/21 05:31:50;;;;;;;22.23;14.83;;;;;;;;;;5041878;28;20507;-61
2023/05/21 05:34:18;;;;;;;20.20;15.57;;;;;;;;;;5044525;28;20495;-61
2023/05/21 05:36:45;;;;;;;20.83;14.77;;;;;;;;;;5039675;28;20494;-61
2023/05/21 05:39:14;;;;;;;18.10;14.17;;;18.20;99.90;;;;;;5037539;28;20492;-61
2023/05/21 05:41:41;;;;;;;18.20;15.33;;;;;;;;;;5034081;28;20785;-60
2023/05/21 05:44:10;;;;;;;19.60;15.43;;;;;;;;;;5033967;28;20847;-62
2023/05/21 05:46:37;;;;;;;21.23;16.23;;;;;;;;;;5035490;28;20479;-60
2023/05/21 05:49:04;;;;;;;20.50;14.50;;;;;;;;;;5038187;28;20480;-60
2023/05/21 05:51:31;;;;;;;20.13;15.27;;;;;;;;;;5038980;28;20534;-60
2023/05/21 05:54:03;;;;;;;17.37;14.00;;;18.70;99.90;;;;;;5039584;28;20509;-60
2023/05/21 05:56:31;;;;;;;18.73;14.43;;;18.80;99.90;;;;;;5038747;28;20472;-62
2023/05/21 05:59:00;;;;;;;22.13;15.40;;;;;;;;;;5036248;28;20587;-62
2023/05/21 06:01:27;;;;;;;16.97;14.97;;;;;;;;;;5041358;28;20455;-62
2023/05/21 06:03:56;;;;;;;18.53;14.37;;;;;;;;;;5040534;28;20567;-58
2023/05/21 06:06:23;;;;;;;15.47;13.87;;;;;;;;;;5037079;28;20448;-62
2023/05/21 06:08:50;;;;;;;19.03;16.07;;;;;;;;;;5037553;28;20486;-60
2023/05/21 06:11:17;;;;;;;18.90;13.60;;;;;;;;;;5048928;28;20468;-61
2023/05/21 06:13:46;;;;;;;19.07;13.67;;;19.40;99.90;;;;;;5042891;28;20479;-62
2023/05/21 06:16:14;;;;;;;17.63;13.80;;;;;;;;;;5034272;28;20479;-62
2023/05/21 06:18:41;;;;;;;17.47;12.80;;;;;;;;;;5033800;28;20575;-62
2023/05/21 06:21:08;;;;;;;15.53;13.83;;;;;;;;;;5039622;28;20530;-61
2023/05/21 06:23:36;;;;;;;19.30;14.20;;;;;;;;;;5046553;28;20444;-62
2023/05/21 06:26:03;;;;;;;16.87;14.73;;;;;;;;;;5057229;28;20524;-61
2023/05/21 06:28:31;;;;;;;15.77;13.80;;;;;;;;;;5060163;28;20479;-56
2023/05/21 06:30:59;;;;;;;18.93;14.63;;;19.60;99.90;;;;;;5052230;28;20515;-61
2023/05/21 06:33:27;;;;;;;23.10;16.07;;;;;;;;;;5049683;28;20551;-59
2023/05/21 06:35:54;;;;;;;16.63;14.93;;;;;;;;;;5042686;28;20475;-62
2023/05/21 06:38:21;;;;;;;18.07;13.97;;;;;;;;;;5052499;28;20487;-56
2023/05/21 06:40:48;;;;;;;16.10;13.40;;;;;;;;;;5047524;28;20444;-60
2023/05/21 06:43:16;;;;;;;17.13;13.20;;;;;;;;;;5050275;28;20507;-59
2023/05/21 06:45:43;;;;;;;19.70;14.10;;;;;;;;;;5046639;28;20504;-63
2023/05/21 06:48:12;;;;;;;16.77;13.17;;;;;;;;;;5037707;28;20763;-60
2023/05/21 06:50:39;;;;;;;18.50;13.30;;;;;;;;;;5037491;28;20479;-61
2023/05/21 06:53:06;;;;;;;22.07;13.60;;;;;;;;;;5039283;28;20929;-62
2023/05/21 06:55:34;;;;;;;20.13;13.70;;;;;;;;;;5044649;28;20483;-60
2023/05/21 06:58:02;;;;;;;15.70;13.70;;;20.20;99.90;;;;;;5040965;28;20454;-61
2023/05/21 07:00:30;;;;;;;15.33;12.87;;;;;;;;;;5042342;28;20540;-61
2023/05/21 07:02:57;;;;;;;16.30;14.30;;;;;;;;;;5041026;28;20515;-61
2023/05/21 07:05:25;;;;;;;18.13;13.30;;;;;;;;;;5039055;28;20503;-62
2023/05/21 07:07:52;;;;;;;14.80;13.27;;;;;;;;;;5044279;28;20479;-62
2023/05/21 07:10:20;;;;;;;15.20;12.77;;;;;;;;;;5042085;28;20522;-60
2023/05/21 07:12:47;;;;;;;19.33;12.87;;;;;;;;;;5036544;28;20462;-59
2023/05/21 07:15:14;;;;;;;18.50;13.20;;;;;;;;;;5038795;28;20554;-61
2023/05/21 07:17:41;;;;;;;12.93;11.53;;;;;;;;;;5054395;28;20432;-61
2023/05/21 07:20:10;;;;;;;14.93;11.97;;;25.00;99.90;;;;;;5047273;28;20460;-62
2023/05/21 07:22:39;;;;;;;12.30;10.23;;;26.50;99.90;;;;;;5044681;28;20439;-61
2023/05/21 07:25:07;;;;;;;15.83;12.43;;;27.90;99.90;;;;;;5039368;28;20455;-62
2023/05/21 07:27:34;;;;;;;13.83;12.53;;;;;;;;;;5039758;28;20443;-62
2023/05/21 07:30:01;;;;;;;11.57;10.47;;;;;;;;;;5040426;28;20463;-61
2023/05/21 07:32:29;;;;;;;12.90;11.07;;;;;;;;;;5039334;28;20535;-61
2023/05/21 07:34:56;;;;;;;11.37;10.33;;;;;;;;;;5039887;28;20901;-61
2023/05/21 07:37:24;;;;;;;11.90;10.70;;;;;;;;;;5038151;28;20571;-62
2023/05/21 07:39:52;;;;;;;10.60;9.60;;;32.70;99.90;;;;;;5047339;28;20494;-61
2023/05/21 07:42:19;;;;;;;13.13;10.40;;;;;;;;;;5041804;28;20452;-61
2023/05/21 07:44:46;;;;;;;11.27;10.23;;;;;;;;;;5041825;28;20500;-60
2023/05/21 07:47:13;;;;;;;11.20;10.20;;;;;;;;;;5038580;28;20559;-61
2023/05/21 07:49:41;;;;;;;13.13;9.93;;;;;;;;;;5039125;28;20527;-61
2023/05/21 07:52:08;;;;;;;10.47;9.47;;;;;;;;;;5037667;28;20468;-61
2023/05/21 07:54:35;;;;;;;10.73;9.73;;;;;;;;;;5038787;28;20476;-63
2023/05/21 07:57:03;;;;;;;10.70;9.60;;;35.10;68.70;;;;;;5037998;28;20957;-62
2023/05/21 07:59:32;;;;;;;10.43;9.13;;;;;;;;;;5038467;28;20488;-63
2023/05/21 08:01:59;;;;;;;10.30;9.40;;;;;;;;;;5037948;28;20538;-62
2023/05/21 08:04:26;;;;;;;12.00;10.37;;;;;;;;;;5039395;28;20808;-61
2023/05/21 08:06:54;;;;;;;11.30;9.50;;;;;;;;;;5041920;28;20475;-61
2023/05/21 08:09:21;;;;;;;10.43;9.43;;;;;;;;;;5038911;28;20484;-60
2023/05/21 08:11:48;;;;;;;10.27;9.37;;;;;;;;;;5036925;28;20572;-60
2023/05/21 08:14:16;;;;;;;12.30;10.00;;;35.70;67.70;;;;;;5024104;28;20528;-61
2023/05/21 08:16:43;;;;;;;11.33;10.23;;;;;;;;;;5022634;28;20461;-60
2023/05/21 08:19:11;;;;;;;12.77;9.77;;;;;;;;;;5026162;28;20495;-61
2023/05/21 08:21:38;;;;;;;12.27;10.57;;;;;;;;;;5019535;28;20472;-62
2023/05/21 08:24:05;;;;;;;9.93;9.03;;;;;;;;;;5018497;28;20469;-62
2023/05/21 08:26:32;;;;;;;10.40;9.40;;;;;;;;;;5026578;28;20488;-61
2023/05/21 08:28:59;;;;;;;9.47;8.57;;;;;;;;;;5016946;28;20429;-61
2023/05/21 08:31:28;;;;;;;10.17;9.07;;;35.10;65.50;;;;;;5024726;28;20491;-62
2023/05/21 08:33:55;;;;;;;16.73;8.80;;;;;;;;;;5017392;28;20540;-61
2023/05/21 08:36:22;;;;;;;10.00;8.00;;;;;;;;;;5016928;28;20453;-63
2023/05/21 08:38:50;;;;;;;10.53;9.37;;;;;;;;;;5017276;28;20878;-61
2023/05/21 08:41:21;;;;;;;9.67;8.77;;;35.20;64.90;;;;;;5017865;28;20832;-61
2023/05/21 08:43:49;;;;;;;11.27;8.10;;;;;;;;;;5031853;28;20502;-62
2023/05/21 08:46:19;;;;;;;9.07;8.27;;;35.30;63.70;;;;;;5036230;28;20490;-62
2023/05/21 08:48:47;;;;;;;10.20;7.30;;;35.30;96.80;;;;;;5036379;28;21084;-60
2023/05/21 08:51:14;;;;;;;9.80;8.60;;;;;;;;;;5037420;28;20543;-62
2023/05/21 08:53:43;;;;;;;9.23;8.30;;;;;;;;;;5036766;28;21008;-60
2023/05/21 08:56:11;;;;;;;8.60;7.53;;;;;;;;;;5038770;28;20456;-61
2023/05/21 08:58:41;;;;;;;10.03;7.57;;;35.40;63.30;;;;;;5038114;28;20825;-61
2023/05/21 09:01:08;;;;;;;7.90;7.10;;;;;;;;;;5036776;28;20444;-62
2023/05/21 09:03:39;;;;;;;10.80;8.23;;;34.90;61.20;;;;;;5034756;28;20476;-61
2023/05/21 09:06:09;;;;;;;8.13;7.40;;;;;;;;;;5034736;28;20464;-61
2023/05/21 09:08:42;;;;;;;16.63;8.77;;;34.20;64.90;;;;;;5035556;28;20486;-62
2023/05/21 09:11:09;;;;;;;10.60;7.97;;;;;;;;;;5036065;28;20486;-61
2023/05/21 09:13:38;;;;;;;8.67;7.77;;;34.10;66.60;;;;;;5036226;28;20559;-62
2023/05/21 09:16:06;;;;;;;10.23;8.17;;;34.30;67.70;;;;;;5036254;28;20547;-63
2023/05/21 09:18:33;;;;;;;7.90;7.10;;;;;;;;;;5036501;28;20575;-61
2023/05/21 09:21:26;;;;;;;8.60;7.80;;;33.80;66.60;;;;;;5038589;28;20515;-60
2023/05/21 09:23:55;;;;;;;9.00;7.57;;;;;;;;;;5038564;28;20934;-61
2023/05/21 09:26:22;;;;;;;10.20;7.60;;;;;;;;;;5038746;28;20454;-59
2023/05/21 09:28:49;;;;;;;8.93;8.07;;;;;;;;;;5035727;28;20496;-61
2023/05/21 09:31:16;;;;;;;9.17;8.10;;;;;;;;;;5036100;28;20448;-60
2023/05/21 09:33:47;;;;;;;8.40;7.43;;;33.70;66.80;;;;;;5036335;28;20472;-62
2023/05/21 09:36:14;;;;;;;8.30;7.60;;;;;;;;;;5035872;28;20439;-60
2023/05/21 09:38:42;;;;;;;8.13;7.33;;;33.70;66.00;;;;;;5035688;28;20981;-63
2023/05/21 09:41:10;;;;;;;6.90;6.30;;;;;;;;;;5035545;28;20543;-61
2023/05/21 09:43:37;;;;;;;7.60;6.83;;;;;;;;;;5035386;28;20492;-59
2023/05/21 09:46:04;;;;;;;9.60;8.07;;;;;;;;;;5035875;28;20436;-63
2023/05/21 09:48:35;;;;;;;8.50;7.60;;;33.30;60.00;;;;;;5042509;28;20475;-62
2023/05/21 09:51:10;;;;;;;7.47;6.77;;;33.40;59.20;;;;;;5035176;28;20896;-62
2023/05/21 09:53:37;;;;;;;6.80;6.23;;;;;;;;;;5033783;28;20467;-60
2023/05/21 09:56:07;;;;;;;6.80;6.13;;;;;;;;;;5035222;28;20771;-62
2023/05/21 09:58:35;;;;;;;14.37;7.67;;;;;;;;;;5034559;28;20491;-60
2023/05/21 10:01:02;;;;;;;9.87;6.97;;;;;;;;;;5035531;28;20495;-62
2023/05/21 10:03:31;;;;;;;7.23;6.60;;;33.30;65.60;;;;;;5037490;28;20536;-59
2023/05/21 10:06:00;;;;;;;9.20;7.03;;;32.80;65.80;;;;;;5037165;28;20458;-63
2023/05/21 10:08:31;;;;;;;8.10;7.30;;;33.10;66.40;;;;;;5034471;28;20925;-62
2023/05/21 10:10:59;;;;;;;6.80;6.10;;;33.00;64.60;;;;;;5034991;28;20424;-63
2023/05/21 10:13:28;;;;;;;6.67;5.90;;;33.10;65.30;;;;;;5034899;28;20456;-63
2023/05/21 10:16:01;;;;;;;7.17;6.47;;;33.50;66.30;;;;;;5035054;28;20515;-62
2023/05/21 10:18:30;;;;;;;7.40;5.87;;;33.60;64.40;;;;;;5039780;28;20456;-61
2023/05/21 10:20:58;;;;;;;8.60;6.97;;;33.90;62.50;;;;;;5035877;28;20583;-61
2023/05/21 10:23:27;;;;;;;8.90;6.50;;;34.20;59.40;;;;;;5035098;28;20527;-62
2023/05/21 10:25:54;;;;;;;10.57;5.93;;;;;;;;;;5035074;28;20526;-62
2023/05/21 10:28:23;;;;;;;7.47;6.23;;;34.30;61.90;;;;;;5035003;28;20462;-61
2023/05/21 10:30:53;;;;;;;6.67;6.00;;;;;;;;;;5027173;28;20553;-61
2023/05/21 10:33:21;;;;;;;7.70;6.70;;;;;;;;;;5013682;28;20452;-62
2023/05/21 10:35:48;;;;;;;9.07;7.60;;;;;;;;;;5014032;28;20792;-61
2023/05/21 10:38:19;;;;;;;8.50;7.60;;;34.00;67.10;;;;;;5014260;28;20457;-62
2023/05/21 10:40:47;;;;;;;8.60;7.73;;;33.60;67.10;;;;;;5013742;28;20795;-61
2023/05/21 10:43:35;;;;;;;8.20;7.40;;;33.50;66.90;;;;;;5018398;28;20582;-60
2023/05/21 10:46:19;;;;;;;8.10;7.10;;;33.30;65.50;;;;;;5016295;28;20469;-62
2023/05/21 10:49:00;;;;;;;6.70;6.10;;;33.00;64.80;;;;;;5017649;28;20425;-62
2023/05/21 10:51:29;;;;;;;6.43;5.80;;;32.60;67.10;;;;;;5015453;28;20830;-61
2023/05/21 10:54:24;;;;;;;7.83;6.50;;;32.50;68.00;;;;;;5014563;28;20449;-63
2023/05/21 10:57:05;;;;;;;7.57;6.13;;;32.10;70.40;;;;;;4989557;28;20492;-61
2023/05/21 10:59:40;;;;;;;8.10;7.30;;;32.20;68.20;;;;;;5014471;28;20561;-61
2023/05/21 11:02:11;;;;;;;14.40;8.83;;;31.60;67.00;;;;;;5030898;28;20526;-61
2023/05/21 11:04:41;;;;;;;9.37;8.10;;;;;;;;;;5036033;28;20962;-62
2023/05/21 11:07:08;;;;;;;6.77;6.17;;;;;;;;;;5037440;28;20463;-61
2023/05/21 11:09:35;;;;;;;6.20;5.60;;;;;;;;;;5037995;28;20528;-62
2023/05/21 11:12:03;;;;;;;6.43;5.80;;;31.30;65.50;;;;;;5038022;28;21035;-61
2023/05/21 11:14:34;;;;;;;7.20;5.23;;;31.20;64.60;;;;;;5018016;28;20918;-61
2023/05/21 11:17:03;;;;;;;9.20;6.10;;;30.80;67.10;;;;;;5018107;28;20563;-61
2023/05/21 11:19:36;;;;;;;5.80;5.30;;;30.40;60.00;;;;;;5017964;28;20463;-64
2023/05/21 11:22:22;;;;;;;6.47;5.87;;;30.20;68.50;;;;;;5018080;28;20469;-62
2023/05/21 11:24:49;;;;;;;6.13;5.60;;;;;;;;;;5018559;28;20421;-62
2023/05/21 11:27:32;;;;;;;6.77;5.93;;;30.40;69.10;;;;;;5018008;28;20477;-56
2023/05/21 11:29:59;;;;;;;7.07;5.60;;;;;;;;;;5017930;28;20429;-61
2023/05/21 11:32:28;;;;;;;8.67;5.10;;;;;;;;;;5018149;28;20468;-61
2023/05/21 11:35:01;;;;;;;6.90;4.97;;;30.10;67.70;;;;;;5018158;28;20460;-63
2023/05/21 11:37:33;;;;;;;5.90;5.10;;;30.50;67.50;;;;;;5018425;28;20469;-63
2023/05/21 11:40:22;;;;;;;7.00;6.30;;;30.70;66.80;;;;;;5018191;28;20480;-62
2023/05/21 11:42:51;;;;;;;6.33;5.73;;;31.10;64.50;;;;;;5024317;28;20870;-62
2023/05/21 11:45:19;;;;;;;5.93;5.33;;;30.60;67.60;;;;;;5038227;28;20531;-60
2023/05/21 11:47:47;;;;;;;6.50;5.87;;;;;;;;;;5037728;28;20925;-62
2023/05/21 11:50:16;;;;;;;7.50;6.70;;;31.00;66.90;;;;;;5038337;28;20452;-61
2023/05/21 11:52:43;;;;;;;8.87;6.30;;;;;;;;;;5037733;28;20474;-62
2023/05/21 11:55:11;;;;;;;6.40;5.80;;;;;;;;;;5037358;28;20458;-63
2023/05/21 11:57:40;;;;;;;8.30;6.13;;;30.90;63.40;;;;;;5037251;28;20500;-60
2023/05/21 12:00:13;;;;;;;17.47;5.90;;;;;;;;;;5037355;28;20479;-63
2023/05/21 12:02:45;;;;;;;7.77;5.10;;;;;;;;;;5037454;28;20476;-62
2023/05/21 12:05:12;;;;;;;6.00;5.40;;;;;;;;;;5037205;28;20892;-61
2023/05/21 12:07:40;;;;;;;6.33;5.40;;;30.60;67.10;;;;;;5037335;28;20570;-62
2023/05/21 12:10:08;;;;;;;5.50;5.00;;;30.70;64.90;;;;;;5036888;28;20622;-62
2023/05/21 12:12:35;;;;;;;9.47;7.23;;;;;;;;;;5037408;28;20934;-63
2023/05/21 12:15:03;;;;;;;6.07;5.47;;;;;;;;;;5037608;28;20444;-62
2023/05/21 12:17:31;;;;;;;7.33;6.33;;;30.30;65.30;;;;;;5036441;28;20576;-62
2023/05/21 12:20:00;;;;;;;5.73;5.00;;;;;;;;;;5037039;28;20483;-62
2023/05/21 12:22:28;;;;;;;12.30;5.97;;;;;;;;;;5036926;28;20534;-62
2023/05/21 12:24:59;;;;;;;5.70;5.20;;;;;;;;;;5036684;28;20555;-63
2023/05/21 12:27:27;;;;;;;7.83;7.03;;;;;;;;;;5036971;28;20499;-60
2023/05/21 12:29:54;;;;;;;9.33;5.20;;;;;;;;;;5038529;28;20471;-61
2023/05/21 12:32:22;;;;;;;6.43;5.83;;;;;;;;;;5039139;28;20475;-63
2023/05/21 12:34:51;;;;;;;7.43;6.23;;;29.90;68.90;;;;;;5036920;28;20482;-62
2023/05/21 12:37:21;;;;;;;7.00;6.40;;;29.80;69.50;;;;;;5036947;28;20460;-61
2023/05/21 12:39:49;;;;;;;6.23;5.70;;;29.50;70.00;;;;;;5036741;28;20448;-63
2023/05/21 12:42:25;;;;;;;7.47;6.77;;;;;;;;;;5036148;28;20463;-61
2023/05/21 12:44:52;;;;;;;5.87;5.20;;;29.40;68.90;;;;;;5036432;28;20531;-60
2023/05/21 12:47:20;;;;;;;7.10;6.10;;;;;;;;;;5036421;28;20543;-60
2023/05/21 12:49:47;;;;;;;8.07;7.27;;;;;;;;;;5036578;28;20483;-62
2023/05/21 12:52:19;;;;;;;8.73;7.13;;;29.80;68.90;;;;;;5036830;28;20500;-60
2023/05/21 12:54:50;;;;;;;7.60;6.17;;;29.90;70.20;;;;;;5036759;28;20820;-61
2023/05/21 12:57:19;;;;;;;8.17;6.80;;;30.00;69.70;;;;;;5036368;28;20507;-63
2023/05/21 12:59:50;;;;;;;6.87;6.17;;;30.10;62.00;;;;;;5035848;28;20459;-63
2023/05/21 13:02:23;;;;;;;10.37;6.00;;;30.10;61.10;;;;;;5035992;28;20452;-62
2023/05/21 13:04:55;;;;;;;7.73;6.03;;;;;;;;;;5035979;28;20522;-62
2023/05/21 13:07:22;;;;;;;6.80;5.83;;;;;;;;;;5037503;28;20433;-61
2023/05/21 13:09:51;;;;;;;6.50;5.20;;;;;;;;;;5038425;28;20452;-61
2023/05/21 13:12:21;;;;;;;6.30;5.53;;;;;;;;;;5037038;28;20445;-60
2023/05/21 13:14:50;;;;;;;8.43;6.20;;;;;;;;;;5038651;28;20869;-62
2023/05/21 13:17:17;;;;;;;6.40;4.97;;;;;;;;;;5038848;28;20850;-61
2023/05/21 13:20:03;;;;;;;8.70;5.30;;;29.80;67.50;;;;;;5038430;28;20460;-62
2023/05/21 13:22:30;;;;;;;7.40;5.83;;;;;;;;;;5037902;28;20798;-61
2023/05/21 13:24:57;;;;;;;6.27;4.83;;;;;;;;;;5035700;28;20440;-62
2023/05/21 13:27:25;;;;;;;6.87;6.13;;;29.70;68.30;;;;;;5036157;28;20531;-64
2023/05/21 13:29:52;;;;;;;6.50;5.23;;;;;;;;;;5035269;28;20559;-61
2023/05/21 13:32:20;;;;;;;6.60;6.00;;;;;;;;;;5035888;28;20486;-59
2023/05/21 13:34:47;;;;;;;7.33;6.67;;;;;;;;;;5035346;28;20533;-61
2023/05/21 13:37:15;;;;;;;7.43;6.60;;;;;;;;;;5035957;28;20448;-61
2023/05/21 13:39:42;;;;;;;6.73;5.87;;;;;;;;;;5035916;28;20518;-62
2023/05/21 13:42:09;;;;;;;10.00;7.00;;;;;;;;;;5035910;28;20543;-62
2023/05/21 13:44:38;;;;;;;8.17;6.57;;;30.00;71.10;;;;;;5035505;28;20563;-62
2023/05/21 13:47:06;;;;;;;11.00;9.83;;;30.20;68.10;;;;;;5035588;28;20992;-61
2023/05/21 13:49:33;;;;;;;6.97;6.37;;;;;;;;;;5035692;28;20504;-62
2023/05/21 13:52:00;;;;;;;7.23;6.57;;;;;;;;;;5035333;28;20526;-61
2023/05/21 13:54:28;;;;;;;7.20;6.30;;;;;;;;;;5035495;28;20547;-64